createdAt,value
2022-09-04T02:01:01.612Z,58.55
2022-09-04T02:03:58.309Z,58.20
2022-09-04T02:53:46.697Z,57.51
2022-09-04T02:56:46.562Z,57.41
2022-09-04T02:59:31.130Z,58.18
2022-09-04T03:02:01.676Z,57.83
2022-09-04T03:45:59.493Z,57.44
2022-09-04T04:21:20.795Z,59.69
2022-09-04T05:10:47.645Z,62.65
2022-09-04T05:13:27.314Z,61.90
2022-09-04T05:16:19.026Z,63.20
2022-09-04T05:19:07.592Z,63.34
2022-09-04T05:21:34.182Z,62.54
2022-09-04T05:41:08.001Z,64.64
2022-09-04T05:44:01.765Z,62.61
2022-09-04T05:46:31.424Z,61.58
2022-09-04T05:49:18.705Z,62.38
2022-09-04T05:52:28.228Z,60.68
2022-09-04T05:55:18.808Z,60.56
2022-09-04T06:39:23.125Z,60.05
2022-09-04T06:42:07.612Z,62.52
2022-09-04T06:44:47.392Z,61.52
2022-09-04T06:47:42.700Z,62.90
2022-09-04T06:50:21.192Z,61.78
2022-09-04T06:53:04.390Z,60.50
2022-09-04T07:25:44.429Z,56.62
2022-09-04T07:28:30.874Z,56.49
2022-09-04T07:31:03.758Z,57.02
2022-09-04T07:33:35.554Z,56.58
2022-09-04T07:36:29.892Z,56.37
2022-09-04T07:39:21.511Z,56.85
2022-09-04T07:59:21.527Z,55.14
2022-09-04T08:06:02.509Z,54.13
2022-09-04T08:09:02.094Z,54.72
2022-09-04T08:26:14.534Z,53.82
2022-09-04T08:56:26.328Z,51.48
2022-09-04T08:59:11.543Z,51.42
2022-09-04T09:01:55.196Z,51.43
2022-09-04T09:04:37.177Z,52.11
2022-09-04T09:58:41.265Z,51.34
2022-09-04T10:01:51.635Z,52.22
2022-09-04T10:04:28.507Z,51.72
2022-09-04T10:07:28.472Z,51.25
2022-09-04T10:10:04.463Z,50.98
2022-09-04T10:12:40.080Z,51.24
2022-09-04T10:19:50.418Z,51.03
2022-09-04T10:22:54.848Z,50.48
2022-09-04T10:25:40.377Z,50.52
2022-09-04T10:28:28.464Z,50.97
2022-09-04T10:31:23.128Z,50.37
2022-09-04T10:33:55.756Z,51.12
2022-09-04T10:36:56.821Z,51.40
2022-09-04T10:40:11.241Z,51.36
2022-09-04T11:29:18.265Z,64.12
2022-09-04T11:32:16.285Z,63.86
2022-09-04T11:35:02.103Z,62.89
2022-09-04T11:37:37.976Z,62.96
2022-09-04T11:58:56.793Z,57.64
2022-09-04T12:01:47.075Z,56.68
2022-09-04T12:04:23.191Z,55.31
2022-09-04T12:07:16.889Z,55.95
2022-09-04T12:10:03.102Z,55.84
2022-09-04T12:29:03.031Z,54.10
2022-09-04T12:31:42.321Z,53.50
2022-09-04T12:34:44.272Z,54.01
2022-09-04T12:37:47.979Z,53.80
2022-09-04T12:40:24.601Z,52.61
2022-09-04T12:43:06.063Z,52.72
2022-09-04T12:46:00.063Z,52.63
2022-09-04T12:49:13.988Z,51.45
2022-09-04T12:51:56.461Z,50.50
2022-09-04T12:54:33.327Z,50.56
2022-09-04T13:18:08.695Z,48.29
2022-09-04T13:21:13.287Z,48.33
2022-09-04T13:24:44.044Z,48.88
2022-09-04T13:27:55.150Z,48.42
2022-09-04T13:44:45.788Z,46.38
2022-09-04T13:47:21.365Z,45.36
2022-09-04T13:50:20.733Z,45.87
2022-09-04T13:52:58.050Z,45.94
2022-09-04T13:55:41.385Z,45.68
2022-09-04T15:31:38.349Z,43.59
2022-09-04T15:34:10.181Z,43.61
2022-09-04T15:36:39.227Z,44.16
2022-09-04T15:39:18.423Z,43.89
2022-09-04T16:23:35.295Z,43.67
2022-09-04T16:26:16.219Z,43.38
2022-09-04T16:29:08.362Z,43.01
2022-09-04T17:37:46.160Z,47.34
2022-09-04T18:37:24.740Z,52.45
2022-09-04T18:37:47.906Z,52.84
2022-09-04T18:50:29.501Z,52.96
2022-09-04T18:55:08.292Z,53.16
2022-09-04T18:58:00.449Z,53.41
2022-09-04T19:35:30.439Z,53.09
2022-09-04T19:45:55.527Z,53.16
2022-09-04T19:46:01.157Z,53.10
2022-09-04T19:46:18.487Z,53.10
2022-09-04T20:02:24.558Z,53.02
2022-09-04T20:05:04.349Z,52.90
2022-09-04T20:08:10.874Z,52.97
2022-09-04T20:11:13.501Z,52.78
2022-09-04T20:14:16.709Z,52.84
2022-09-04T20:27:50.343Z,53.83
2022-09-04T20:30:25.114Z,53.91
2022-09-04T20:33:08.318Z,53.92
2022-09-04T21:03:06.485Z,53.80
2022-09-04T21:06:43.778Z,54.21
2022-09-04T21:09:55.117Z,54.39
2022-09-04T21:12:46.881Z,54.21
2022-09-04T21:19:27.819Z,54.06
2022-09-04T21:21:51.963Z,54.17
2022-09-04T21:24:31.015Z,54.25
2022-09-04T21:27:22.546Z,54.34
2022-09-04T21:29:56.788Z,54.75
2022-09-04T21:38:09.817Z,55.63
2022-09-04T21:41:13.669Z,56.09
2022-09-04T21:43:59.593Z,55.83
2022-09-04T21:46:44.237Z,55.47
2022-09-04T21:49:53.570Z,55.38
2022-09-04T21:52:44.698Z,56.24
2022-09-04T21:58:06.715Z,56.66
2022-09-04T23:35:15.590Z,61.94
2022-09-04T23:38:45.564Z,62.63
2022-09-04T23:41:52.934Z,62.66
2022-09-04T23:44:57.059Z,61.74
